Briefing drone pour Belleville

Rechercher une autre localisation

Conditions de vol :


Nous sommes le : Samedi 16 janvier 2021
Il est 06:28 UTC (07:28 LT)

Lever de soleil : 06:56 UTC (07:56 LT)
Coucher de soleil : 16:34 UTC (17:34 LT)


Warning: min(): Array must contain at least one element in /homepages/6/d509196549/htdocs/briefdrone/includes/function/metar/metar.php on line 1265

Météo

L'essentiel des conditions de vol

VIGILANCE MÉTÉO FRANCE - Meurthe-et-Moselle (54)
Vigilance Jaune : Inondation / Neige-verglas
CARTE TEMSI
CARTES DES FRONTS
METAR de LFSN
LFSN 160600Z AUTO 00000KT 0600 0450 R03/0700U FZFG VV/// M11/M12 Q1029

Date d'émission: 16/01/2021
Heure d'émission: 06:00 UTC
Vent: Calme
Visibilité horizontale: 0600/0450 m
Température: -11 °C
Point de rosée: -12 °C
Humidité: 92%
Pression (QNH): 1029 hPa
Conditions: Brouillard givrant
TAF de LFSN
LFSN 141600Z 1416/1512 CNL

Conditions prévues :

Heure d'émission : Bulletin éffectué le 14 à 16:00 UTC
Prévision : Valide du 14 a 16:00 UTC au 15 a 12:00 UTC
Nuages : à 0ft (0 m)
WEBCAM POUR BELLEVILLE

Réglementation

Voler en sécurité

CARTES AERONAUTIQUE 1/500.000
CARTES VAC (LFSN)
SUP AIP




Chargement des AIP...
NOTAM (BELLEVILLE + Terrain à proximité / FIR )




Chargement des NOTAMS...
CONTACT PREFECTURE 54


Avertissement : Les données mises à disposition sont indicatives. Oxygène Drone ne pourra être tenu responsable de dégâts causés aux biens et aux personnes.